sensor_id;sensor_type;location;lat;lon;timestamp;temperature;humidity
10812;DHT22;5458;51.496;7.334;2023-05-10T00:00:30;15.80;99.90
10812;DHT22;5458;51.496;7.334;2023-05-10T00:02:56;15.80;99.90
10812;DHT22;5458;51.496;7.334;2023-05-10T00:05:22;15.80;99.90
10812;DHT22;5458;51.496;7.334;2023-05-10T00:07:47;15.80;99.90
10812;DHT22;5458;51.496;7.334;2023-05-10T00:10:13;15.80;99.90
10812;DHT22;5458;51.496;7.334;2023-05-10T00:12:39;15.80;99.90
10812;DHT22;5458;51.496;7.334;2023-05-10T00:15:05;15.80;99.90
10812;DHT22;5458;51.496;7.334;2023-05-10T00:17:31;15.80;99.90
10812;DHT22;5458;51.496;7.334;2023-05-10T00:19:56;15.80;99.90
10812;DHT22;5458;51.496;7.334;2023-05-10T00:22:22;15.80;99.90
10812;DHT22;5458;51.496;7.334;2023-05-10T00:24:48;15.80;99.90
10812;DHT22;5458;51.496;7.334;2023-05-10T00:27:14;15.80;99.90
10812;DHT22;5458;51.496;7.334;2023-05-10T00:29:39;15.80;99.90
10812;DHT22;5458;51.496;7.334;2023-05-10T00:32:05;15.70;99.90
10812;DHT22;5458;51.496;7.334;2023-05-10T00:34:31;15.60;99.90
10812;DHT22;5458;51.496;7.334;2023-05-10T00:36:57;15.70;99.90
10812;DHT22;5458;51.496;7.334;2023-05-10T00:39:22;15.70;99.90
10812;DHT22;5458;51.496;7.334;2023-05-10T00:41:48;15.70;99.90
10812;DHT22;5458;51.496;7.334;2023-05-10T00:44:13;15.70;99.90
10812;DHT22;5458;51.496;7.334;2023-05-10T00:46:39;15.70;99.90
10812;DHT22;5458;51.496;7.334;2023-05-10T00:49:05;15.60;99.90
10812;DHT22;5458;51.496;7.334;2023-05-10T00:51:31;15.70;99.90
10812;DHT22;5458;51.496;7.334;2023-05-10T00:53:57;15.60;99.90
10812;DHT22;5458;51.496;7.334;2023-05-10T00:56:24;15.50;99.90
10812;DHT22;5458;51.496;7.334;2023-05-10T00:58:50;15.50;99.90
10812;DHT22;5458;51.496;7.334;2023-05-10T01:01:16;15.60;99.90
10812;DHT22;5458;51.496;7.334;2023-05-10T01:03:41;15.60;99.90
10812;DHT22;5458;51.496;7.334;2023-05-10T01:06:08;15.60;99.90
10812;DHT22;5458;51.496;7.334;2023-05-10T01:08:35;15.60;99.90
10812;DHT22;5458;51.496;7.334;2023-05-10T01:11:01;15.60;99.90
10812;DHT22;5458;51.496;7.334;2023-05-10T01:13:38;15.60;99.90
10812;DHT22;5458;51.496;7.334;2023-05-10T01:16:05;15.60;99.90
10812;DHT22;5458;51.496;7.334;2023-05-10T01:18:34;15.70;99.90
10812;DHT22;5458;51.496;7.334;2023-05-10T01:35:03;15.40;99.90
10812;DHT22;5458;51.496;7.334;2023-05-10T01:37:52;15.40;99.90
10812;DHT22;5458;51.496;7.334;2023-05-10T01:40:51;15.40;99.90
10812;DHT22;5458;51.496;7.334;2023-05-10T01:43:22;15.30;99.90
10812;DHT22;5458;51.496;7.334;2023-05-10T01:46:09;15.30;99.90
10812;DHT22;5458;51.496;7.334;2023-05-10T01:48:46;15.30;99.90
10812;DHT22;5458;51.496;7.334;2023-05-10T01:51:25;15.40;99.90
10812;DHT22;5458;51.496;7.334;2023-05-10T01:54:02;15.30;99.90
10812;DHT22;5458;51.496;7.334;2023-05-10T01:56:30;15.20;99.90
10812;DHT22;5458;51.496;7.334;2023-05-10T01:58:58;15.20;99.90
10812;DHT22;5458;51.496;7.334;2023-05-10T02:01:26;15.20;99.90
10812;DHT22;5458;51.496;7.334;2023-05-10T02:03:53;15.20;99.90
10812;DHT22;5458;51.496;7.334;2023-05-10T02:06:20;15.20;99.90
10812;DHT22;5458;51.496;7.334;2023-05-10T02:08:47;15.20;99.90
10812;DHT22;5458;51.496;7.334;2023-05-10T02:11:15;15.20;99.90
10812;DHT22;5458;51.496;7.334;2023-05-10T02:13:42;15.20;99.90
10812;DHT22;5458;51.496;7.334;2023-05-10T02:16:08;15.20;99.90
10812;DHT22;5458;51.496;7.334;2023-05-10T02:18:35;15.10;99.90
10812;DHT22;5458;51.496;7.334;2023-05-10T02:21:02;15.20;99.90
10812;DHT22;5458;51.496;7.334;2023-05-10T02:23:29;15.10;99.90
10812;DHT22;5458;51.496;7.334;2023-05-10T02:25:56;15.10;99.90
10812;DHT22;5458;51.496;7.334;2023-05-10T02:28:23;15.10;99.90
10812;DHT22;5458;51.496;7.334;2023-05-10T02:30:51;15.20;99.90
10812;DHT22;5458;51.496;7.334;2023-05-10T02:33:18;15.20;99.90
10812;DHT22;5458;51.496;7.334;2023-05-10T02:35:46;15.20;99.90
10812;DHT22;5458;51.496;7.334;2023-05-10T02:38:13;15.20;99.90
10812;DHT22;5458;51.496;7.334;2023-05-10T02:40:41;15.20;99.90
10812;DHT22;5458;51.496;7.334;2023-05-10T02:43:11;15.20;99.90
10812;DHT22;5458;51.496;7.334;2023-05-10T02:45:38;15.30;99.90
10812;DHT22;5458;51.496;7.334;2023-05-10T02:48:04;15.30;99.90
10812;DHT22;5458;51.496;7.334;2023-05-10T02:50:33;15.30;99.90
10812;DHT22;5458;51.496;7.334;2023-05-10T02:53:09;15.20;99.90
10812;DHT22;5458;51.496;7.334;2023-05-10T02:55:38;15.30;99.90
10812;DHT22;5458;51.496;7.334;2023-05-10T02:58:04;15.20;99.90
10812;DHT22;5458;51.496;7.334;2023-05-10T03:00:31;15.10;99.90
10812;DHT22;5458;51.496;7.334;2023-05-10T03:02:56;15.10;99.90
10812;DHT22;5458;51.496;7.334;2023-05-10T03:05:22;15.10;99.90
10812;DHT22;5458;51.496;7.334;2023-05-10T03:07:49;15.00;99.90
10812;DHT22;5458;51.496;7.334;2023-05-10T03:10:15;15.00;99.90
10812;DHT22;5458;51.496;7.334;2023-05-10T03:15:57;15.10;99.90
10812;DHT22;5458;51.496;7.334;2023-05-10T03:18:38;15.10;99.90
10812;DHT22;5458;51.496;7.334;2023-05-10T03:21:08;15.10;99.90
10812;DHT22;5458;51.496;7.334;2023-05-10T03:23:44;15.10;99.90
10812;DHT22;5458;51.496;7.334;2023-05-10T03:26:25;15.10;99.90
10812;DHT22;5458;51.496;7.334;2023-05-10T03:28:52;15.10;99.90
10812;DHT22;5458;51.496;7.334;2023-05-10T03:31:18;15.00;99.90
10812;DHT22;5458;51.496;7.334;2023-05-10T03:33:48;15.00;99.90
10812;DHT22;5458;51.496;7.334;2023-05-10T03:36:14;15.00;99.90
10812;DHT22;5458;51.496;7.334;2023-05-10T03:38:39;15.00;99.90
10812;DHT22;5458;51.496;7.334;2023-05-10T03:41:05;15.00;99.90
10812;DHT22;5458;51.496;7.334;2023-05-10T03:43:30;15.10;99.90
10812;DHT22;5458;51.496;7.334;2023-05-10T03:45:56;15.10;99.90
10812;DHT22;5458;51.496;7.334;2023-05-10T03:48:22;15.10;99.90
10812;DHT22;5458;51.496;7.334;2023-05-10T03:50:47;15.10;99.90
10812;DHT22;5458;51.496;7.334;2023-05-10T03:53:14;15.10;99.90
10812;DHT22;5458;51.496;7.334;2023-05-10T03:55:40;15.10;99.90
10812;DHT22;5458;51.496;7.334;2023-05-10T03:58:06;15.10;99.90
10812;DHT22;5458;51.496;7.334;2023-05-10T04:00:31;15.20;99.90
10812;DHT22;5458;51.496;7.334;2023-05-10T04:02:58;15.10;99.90
10812;DHT22;5458;51.496;7.334;2023-05-10T04:05:23;15.10;99.90
10812;DHT22;5458;51.496;7.334;2023-05-10T04:07:49;15.10;99.90
10812;DHT22;5458;51.496;7.334;2023-05-10T04:10:16;15.10;99.90
10812;DHT22;5458;51.496;7.334;2023-05-10T04:12:41;15.10;99.90
10812;DHT22;5458;51.496;7.334;2023-05-10T04:15:07;15.10;99.90
10812;DHT22;5458;51.496;7.334;2023-05-10T04:17:33;15.10;99.90
10812;DHT22;5458;51.496;7.334;2023-05-10T04:19:59;15.20;99.90
10812;DHT22;5458;51.496;7.334;2023-05-10T04:22:24;15.20;99.90
10812;DHT22;5458;51.496;7.334;2023-05-10T04:24:50;15.20;99.90
10812;DHT22;5458;51.496;7.334;2023-05-10T04:27:15;15.20;99.90
10812;DHT22;5458;51.496;7.334;2023-05-10T04:29:41;15.20;99.90
10812;DHT22;5458;51.496;7.334;2023-05-10T04:32:07;15.20;99.90
10812;DHT22;5458;51.496;7.334;2023-05-10T04:34:33;15.20;99.90
10812;DHT22;5458;51.496;7.334;2023-05-10T04:36:59;15.20;99.90
10812;DHT22;5458;51.496;7.334;2023-05-10T04:39:25;15.20;99.90
10812;DHT22;5458;51.496;7.334;2023-05-10T04:41:50;15.20;99.90
10812;DHT22;5458;51.496;7.334;2023-05-10T04:44:16;15.20;99.90
10812;DHT22;5458;51.496;7.334;2023-05-10T04:46:41;15.20;99.90
10812;DHT22;5458;51.496;7.334;2023-05-10T04:49:07;15.10;99.90
10812;DHT22;5458;51.496;7.334;2023-05-10T04:51:33;15.10;99.90
10812;DHT22;5458;51.496;7.334;2023-05-10T04:53:58;15.10;99.90
10812;DHT22;5458;51.496;7.334;2023-05-10T04:56:24;15.00;99.90
10812;DHT22;5458;51.496;7.334;2023-05-10T04:58:49;15.00;99.90
10812;DHT22;5458;51.496;7.334;2023-05-10T05:01:15;15.10;99.90
10812;DHT22;5458;51.496;7.334;2023-05-10T05:03:41;15.10;99.90
10812;DHT22;5458;51.496;7.334;2023-05-10T05:06:06;15.10;99.90
10812;DHT22;5458;51.496;7.334;2023-05-10T05:08:32;15.10;99.90
10812;DHT22;5458;51.496;7.334;2023-05-10T05:10:57;15.10;99.90
10812;DHT22;5458;51.496;7.334;2023-05-10T05:13:24;15.10;99.90
10812;DHT22;5458;51.496;7.334;2023-05-10T05:15:50;15.10;99.90
10812;DHT22;5458;51.496;7.334;2023-05-10T05:18:15;15.10;99.90
10812;DHT22;5458;51.496;7.334;2023-05-10T05:20:41;15.10;99.90
10812;DHT22;5458;51.496;7.334;2023-05-10T05:23:07;15.10;99.90
10812;DHT22;5458;51.496;7.334;2023-05-10T05:25:32;15.10;99.90
10812;DHT22;5458;51.496;7.334;2023-05-10T05:27:58;15.00;99.90
10812;DHT22;5458;51.496;7.334;2023-05-10T05:30:23;15.10;99.90
10812;DHT22;5458;51.496;7.334;2023-05-10T05:32:49;15.10;99.90
10812;DHT22;5458;51.496;7.334;2023-05-10T05:35:15;15.10;99.90
10812;DHT22;5458;51.496;7.334;2023-05-10T05:37:40;15.10;99.90
10812;DHT22;5458;51.496;7.334;2023-05-10T05:40:06;15.10;99.90
10812;DHT22;5458;51.496;7.334;2023-05-10T05:42:32;15.10;99.90
10812;DHT22;5458;51.496;7.334;2023-05-10T05:44:58;15.10;99.90
10812;DHT22;5458;51.496;7.334;2023-05-10T05:47:23;15.20;99.90
10812;DHT22;5458;51.496;7.334;2023-05-10T05:49:49;15.20;99.90
10812;DHT22;5458;51.496;7.334;2023-05-10T05:52:14;15.30;99.90
10812;DHT22;5458;51.496;7.334;2023-05-10T05:54:40;15.30;99.90
10812;DHT22;5458;51.496;7.334;2023-05-10T05:57:06;15.30;99.90
10812;DHT22;5458;51.496;7.334;2023-05-10T05:59:31;15.30;99.90
10812;DHT22;5458;51.496;7.334;2023-05-10T06:01:57;15.30;99.90
10812;DHT22;5458;51.496;7.334;2023-05-10T06:04:23;15.30;99.90
10812;DHT22;5458;51.496;7.334;2023-05-10T06:06:48;15.40;99.90
10812;DHT22;5458;51.496;7.334;2023-05-10T06:09:14;15.50;99.90
10812;DHT22;5458;51.496;7.334;2023-05-10T06:11:39;15.60;99.90
10812;DHT22;5458;51.496;7.334;2023-05-10T06:14:05;15.60;99.90
10812;DHT22;5458;51.496;7.334;2023-05-10T06:16:32;15.60;99.90
10812;DHT22;5458;51.496;7.334;2023-05-10T06:18:58;15.60;99.90
10812;DHT22;5458;51.496;7.334;2023-05-10T06:21:23;15.60;99.90
10812;DHT22;5458;51.496;7.334;2023-05-10T06:23:49;15.40;99.90
10812;DHT22;5458;51.496;7.334;2023-05-10T06:26:15;15.40;99.90
10812;DHT22;5458;51.496;7.334;2023-05-10T06:28:40;15.40;99.90
10812;DHT22;5458;51.496;7.334;2023-05-10T06:31:06;15.40;99.90
10812;DHT22;5458;51.496;7.334;2023-05-10T06:33:33;15.40;99.90
10812;DHT22;5458;51.496;7.334;2023-05-10T06:35:58;15.40;99.90
10812;DHT22;5458;51.496;7.334;2023-05-10T06:38:24;15.40;99.90
10812;DHT22;5458;51.496;7.334;2023-05-10T06:40:50;15.50;99.90
10812;DHT22;5458;51.496;7.334;2023-05-10T06:43:16;15.50;99.90
10812;DHT22;5458;51.496;7.334;2023-05-10T06:45:41;15.50;99.90
10812;DHT22;5458;51.496;7.334;2023-05-10T06:48:07;15.60;99.90
10812;DHT22;5458;51.496;7.334;2023-05-10T06:50:33;15.60;99.90
10812;DHT22;5458;51.496;7.334;2023-05-10T06:52:59;15.70;99.90
10812;DHT22;5458;51.496;7.334;2023-05-10T06:55:25;15.70;99.90
10812;DHT22;5458;51.496;7.334;2023-05-10T06:57:50;15.80;99.90
10812;DHT22;5458;51.496;7.334;2023-05-10T07:00:17;15.90;99.90
10812;DHT22;5458;51.496;7.334;2023-05-10T07:02:43;15.90;99.90
10812;DHT22;5458;51.496;7.334;2023-05-10T07:05:09;16.20;99.90
10812;DHT22;5458;51.496;7.334;2023-05-10T07:07:34;16.80;99.90
10812;DHT22;5458;51.496;7.334;2023-05-10T07:10:00;17.90;99.90
10812;DHT22;5458;51.496;7.334;2023-05-10T07:12:26;18.10;99.90
10812;DHT22;5458;51.496;7.334;2023-05-10T07:14:52;18.00;99.90
10812;DHT22;5458;51.496;7.334;2023-05-10T07:17:17;18.40;99.90
10812;DHT22;5458;51.496;7.334;2023-05-10T07:19:43;18.80;99.90
10812;DHT22;5458;51.496;7.334;2023-05-10T07:22:09;19.10;99.90
10812;DHT22;5458;51.496;7.334;2023-05-10T07:24:34;19.00;99.90
10812;DHT22;5458;51.496;7.334;2023-05-10T07:27:00;18.70;99.90
10812;DHT22;5458;51.496;7.334;2023-05-10T07:29:26;18.70;99.90
10812;DHT22;5458;51.496;7.334;2023-05-10T07:31:51;18.70;99.90
10812;DHT22;5458;51.496;7.334;2023-05-10T07:34:17;19.20;99.90
10812;DHT22;5458;51.496;7.334;2023-05-10T07:36:43;19.20;99.90
10812;DHT22;5458;51.496;7.334;2023-05-10T07:39:08;19.00;99.90
10812;DHT22;5458;51.496;7.334;2023-05-10T07:41:34;18.60;99.90
10812;DHT22;5458;51.496;7.334;2023-05-10T07:43:59;18.30;99.90
10812;DHT22;5458;51.496;7.334;2023-05-10T07:46:25;17.90;99.90
10812;DHT22;5458;51.496;7.334;2023-05-10T07:48:51;17.80;99.90
10812;DHT22;5458;51.496;7.334;2023-05-10T07:51:16;18.10;99.90
10812;DHT22;5458;51.496;7.334;2023-05-10T07:53:42;18.50;99.90
10812;DHT22;5458;51.496;7.334;2023-05-10T07:56:29;19.20;99.90
10812;DHT22;5458;51.496;7.334;2023-05-10T07:58:59;19.20;99.90
10812;DHT22;5458;51.496;7.334;2023-05-10T08:01:25;19.50;99.90
10812;DHT22;5458;51.496;7.334;2023-05-10T08:03:51;20.60;99.90
10812;DHT22;5458;51.496;7.334;2023-05-10T08:06:19;21.90;99.90
10812;DHT22;5458;51.496;7.334;2023-05-10T08:08:48;23.50;99.90
10812;DHT22;5458;51.496;7.334;2023-05-10T08:11:19;23.90;99.90
10812;DHT22;5458;51.496;7.334;2023-05-10T08:13:46;23.30;99.90
10812;DHT22;5458;51.496;7.334;2023-05-10T08:16:12;22.30;99.90
10812;DHT22;5458;51.496;7.334;2023-05-10T08:18:38;21.30;99.90
10812;DHT22;5458;51.496;7.334;2023-05-10T08:21:04;20.30;99.90
10812;DHT22;5458;51.496;7.334;2023-05-10T08:23:30;19.90;99.90
10812;DHT22;5458;51.496;7.334;2023-05-10T08:25:56;19.70;99.90
10812;DHT22;5458;51.496;7.334;2023-05-10T08:28:22;19.50;99.90
10812;DHT22;5458;51.496;7.334;2023-05-10T08:30:47;19.30;99.90
10812;DHT22;5458;51.496;7.334;2023-05-10T08:33:13;18.90;99.90
10812;DHT22;5458;51.496;7.334;2023-05-10T08:35:38;18.70;99.90
10812;DHT22;5458;51.496;7.334;2023-05-10T08:38:04;18.50;99.90
10812;DHT22;5458;51.496;7.334;2023-05-10T08:40:29;18.30;99.90
10812;DHT22;5458;51.496;7.334;2023-05-10T08:43:06;18.30;99.90
10812;DHT22;5458;51.496;7.334;2023-05-10T08:45:33;18.00;99.90
10812;DHT22;5458;51.496;7.334;2023-05-10T08:48:02;17.80;99.90
10812;DHT22;5458;51.496;7.334;2023-05-10T08:50:31;17.70;99.90
10812;DHT22;5458;51.496;7.334;2023-05-10T08:53:00;17.50;99.90
10812;DHT22;5458;51.496;7.334;2023-05-10T08:55:26;17.50;99.90
10812;DHT22;5458;51.496;7.334;2023-05-10T08:57:52;17.50;99.90
10812;DHT22;5458;51.496;7.334;2023-05-10T09:00:18;17.50;99.90
10812;DHT22;5458;51.496;7.334;2023-05-10T09:02:45;17.40;99.90
10812;DHT22;5458;51.496;7.334;2023-05-10T09:05:13;17.40;99.90
10812;DHT22;5458;51.496;7.334;2023-05-10T09:07:41;17.60;99.90
10812;DHT22;5458;51.496;7.334;2023-05-10T09:10:08;17.70;99.90
10812;DHT22;5458;51.496;7.334;2023-05-10T09:12:35;17.80;99.90
10812;DHT22;5458;51.496;7.334;2023-05-10T09:15:02;17.80;99.90
10812;DHT22;5458;51.496;7.334;2023-05-10T09:17:29;18.00;99.90
10812;DHT22;5458;51.496;7.334;2023-05-10T09:19:59;17.90;99.90
10812;DHT22;5458;51.496;7.334;2023-05-10T09:22:25;17.80;99.90
10812;DHT22;5458;51.496;7.334;2023-05-10T09:25:07;17.90;99.90
10812;DHT22;5458;51.496;7.334;2023-05-10T09:27:33;18.00;99.90
10812;DHT22;5458;51.496;7.334;2023-05-10T09:29:59;18.10;99.90
10812;DHT22;5458;51.496;7.334;2023-05-10T09:32:42;18.30;99.90
10812;DHT22;5458;51.496;7.334;2023-05-10T09:35:12;18.30;99.90
10812;DHT22;5458;51.496;7.334;2023-05-10T09:37:47;18.30;99.90
10812;DHT22;5458;51.496;7.334;2023-05-10T09:40:21;18.30;99.90
10812;DHT22;5458;51.496;7.334;2023-05-10T09:42:55;18.30;99.90
10812;DHT22;5458;51.496;7.334;2023-05-10T09:45:22;18.40;99.90
10812;DHT22;5458;51.496;7.334;2023-05-10T09:47:48;18.40;99.90
10812;DHT22;5458;51.496;7.334;2023-05-10T09:50:13;18.40;99.90
10812;DHT22;5458;51.496;7.334;2023-05-10T09:52:55;18.40;99.90
10812;DHT22;5458;51.496;7.334;2023-05-10T09:55:24;18.30;99.90
10812;DHT22;5458;51.496;7.334;2023-05-10T09:57:58;18.20;99.90
10812;DHT22;5458;51.496;7.334;2023-05-10T10:00:24;18.20;99.90
10812;DHT22;5458;51.496;7.334;2023-05-10T10:02:58;18.30;99.90
10812;DHT22;5458;51.496;7.334;2023-05-10T10:05:34;18.40;99.90
10812;DHT22;5458;51.496;7.334;2023-05-10T10:08:02;18.50;99.90
10812;DHT22;5458;51.496;7.334;2023-05-10T10:10:29;18.60;99.90
10812;DHT22;5458;51.496;7.334;2023-05-10T10:12:55;18.80;99.90
10812;DHT22;5458;51.496;7.334;2023-05-10T10:15:22;19.00;99.90
10812;DHT22;5458;51.496;7.334;2023-05-10T10:17:49;18.90;99.90
10812;DHT22;5458;51.496;7.334;2023-05-10T10:20:16;19.00;99.90
10812;DHT22;5458;51.496;7.334;2023-05-10T10:22:41;19.10;99.90
10812;DHT22;5458;51.496;7.334;2023-05-10T10:25:10;19.10;99.90
10812;DHT22;5458;51.496;7.334;2023-05-10T10:30:43;19.60;99.90
10812;DHT22;5458;51.496;7.334;2023-05-10T10:35:55;20.30;99.90
10812;DHT22;5458;51.496;7.334;2023-05-10T10:38:23;20.40;99.90
10812;DHT22;5458;51.496;7.334;2023-05-10T10:40:49;20.50;99.90
10812;DHT22;5458;51.496;7.334;2023-05-10T10:43:28;20.20;99.90
10812;DHT22;5458;51.496;7.334;2023-05-10T10:48:39;19.60;99.90
10812;DHT22;5458;51.496;7.334;2023-05-10T10:51:05;19.30;99.90
10812;DHT22;5458;51.496;7.334;2023-05-10T10:53:31;18.90;99.90
10812;DHT22;5458;51.496;7.334;2023-05-10T10:56:07;18.50;99.90
10812;DHT22;5458;51.496;7.334;2023-05-10T10:58:34;18.50;99.90
10812;DHT22;5458;51.496;7.334;2023-05-10T11:01:18;18.50;99.90
10812;DHT22;5458;51.496;7.334;2023-05-10T11:06:34;18.80;99.90
10812;DHT22;5458;51.496;7.334;2023-05-10T11:09:10;18.90;99.90
10812;DHT22;5458;51.496;7.334;2023-05-10T11:11:48;18.70;99.90
10812;DHT22;5458;51.496;7.334;2023-05-10T11:14:20;18.80;99.90
10812;DHT22;5458;51.496;7.334;2023-05-10T11:16:46;19.00;99.90
10812;DHT22;5458;51.496;7.334;2023-05-10T11:19:14;19.00;99.90
10812;DHT22;5458;51.496;7.334;2023-05-10T11:21:50;19.00;99.90
10812;DHT22;5458;51.496;7.334;2023-05-10T11:24:22;19.00;99.90
10812;DHT22;5458;51.496;7.334;2023-05-10T11:26:50;18.90;99.90
10812;DHT22;5458;51.496;7.334;2023-05-10T11:29:17;18.90;99.90
10812;DHT22;5458;51.496;7.334;2023-05-10T11:31:44;18.80;99.90
10812;DHT22;5458;51.496;7.334;2023-05-10T11:34:11;18.80;99.90
10812;DHT22;5458;51.496;7.334;2023-05-10T11:36:36;18.80;99.90
10812;DHT22;5458;51.496;7.334;2023-05-10T11:39:03;18.80;99.90
10812;DHT22;5458;51.496;7.334;2023-05-10T11:41:29;18.80;99.90
10812;DHT22;5458;51.496;7.334;2023-05-10T11:43:56;18.80;99.90
10812;DHT22;5458;51.496;7.334;2023-05-10T11:46:24;18.60;99.90
10812;DHT22;5458;51.496;7.334;2023-05-10T11:48:55;18.60;99.90
10812;DHT22;5458;51.496;7.334;2023-05-10T11:51:23;18.60;99.90
10812;DHT22;5458;51.496;7.334;2023-05-10T11:53:56;18.80;99.90
10812;DHT22;5458;51.496;7.334;2023-05-10T11:56:21;18.80;99.90
10812;DHT22;5458;51.496;7.334;2023-05-10T11:58:56;18.90;99.90
10812;DHT22;5458;51.496;7.334;2023-05-10T12:01:22;19.20;99.90
10812;DHT22;5458;51.496;7.334;2023-05-10T12:03:50;19.40;99.90
10812;DHT22;5458;51.496;7.334;2023-05-10T12:06:16;19.50;99.90
10812;DHT22;5458;51.496;7.334;2023-05-10T12:08:49;19.80;99.90
10812;DHT22;5458;51.496;7.334;2023-05-10T12:11:24;19.90;99.90
10812;DHT22;5458;51.496;7.334;2023-05-10T12:13:50;19.70;99.90
10812;DHT22;5458;51.496;7.334;2023-05-10T12:16:20;19.60;99.90
10812;DHT22;5458;51.496;7.334;2023-05-10T12:18:49;19.40;99.90
10812;DHT22;5458;51.496;7.334;2023-05-10T12:21:16;19.20;99.90
10812;DHT22;5458;51.496;7.334;2023-05-10T12:23:45;19.00;99.90
10812;DHT22;5458;51.496;7.334;2023-05-10T12:26:11;18.90;99.90
10812;DHT22;5458;51.496;7.334;2023-05-10T12:28:37;18.90;99.90
10812;DHT22;5458;51.496;7.334;2023-05-10T12:31:05;18.80;99.90
10812;DHT22;5458;51.496;7.334;2023-05-10T12:33:46;19.00;99.90
10812;DHT22;5458;51.496;7.334;2023-05-10T12:36:15;19.10;99.90
10812;DHT22;5458;51.496;7.334;2023-05-10T12:38:45;19.20;99.90
10812;DHT22;5458;51.496;7.334;2023-05-10T12:41:17;19.10;99.90
10812;DHT22;5458;51.496;7.334;2023-05-10T12:43:43;19.20;99.90
10812;DHT22;5458;51.496;7.334;2023-05-10T12:46:13;19.30;99.90
10812;DHT22;5458;51.496;7.334;2023-05-10T12:48:40;19.50;99.90
10812;DHT22;5458;51.496;7.334;2023-05-10T12:51:07;19.60;99.90
10812;DHT22;5458;51.496;7.334;2023-05-10T12:53:37;19.50;99.90
10812;DHT22;5458;51.496;7.334;2023-05-10T12:56:03;19.60;99.90
10812;DHT22;5458;51.496;7.334;2023-05-10T12:58:28;19.60;99.90
10812;DHT22;5458;51.496;7.334;2023-05-10T13:00:54;19.70;99.90
10812;DHT22;5458;51.496;7.334;2023-05-10T13:03:21;19.80;99.90
10812;DHT22;5458;51.496;7.334;2023-05-10T13:05:47;20.00;99.90
10812;DHT22;5458;51.496;7.334;2023-05-10T13:08:13;19.90;99.90
10812;DHT22;5458;51.496;7.334;2023-05-10T13:10:38;19.90;99.90
10812;DHT22;5458;51.496;7.334;2023-05-10T13:13:04;19.70;99.90
10812;DHT22;5458;51.496;7.334;2023-05-10T13:15:30;19.50;99.90
10812;DHT22;5458;51.496;7.334;2023-05-10T13:17:56;19.40;99.90
10812;DHT22;5458;51.496;7.334;2023-05-10T13:20:21;19.40;99.90
10812;DHT22;5458;51.496;7.334;2023-05-10T13:22:47;19.40;99.90
10812;DHT22;5458;51.496;7.334;2023-05-10T13:25:13;19.50;99.90
10812;DHT22;5458;51.496;7.334;2023-05-10T13:27:39;19.40;99.90
10812;DHT22;5458;51.496;7.334;2023-05-10T13:30:06;19.40;99.90
10812;DHT22;5458;51.496;7.334;2023-05-10T13:32:32;19.40;99.90
10812;DHT22;5458;51.496;7.334;2023-05-10T13:34:58;19.50;99.90
10812;DHT22;5458;51.496;7.334;2023-05-10T13:37:24;19.60;99.90
10812;DHT22;5458;51.496;7.334;2023-05-10T13:39:49;19.80;99.90
10812;DHT22;5458;51.496;7.334;2023-05-10T13:42:15;19.90;99.90
10812;DHT22;5458;51.496;7.334;2023-05-10T13:44:40;20.00;99.90
10812;DHT22;5458;51.496;7.334;2023-05-10T13:47:06;20.20;99.90
10812;DHT22;5458;51.496;7.334;2023-05-10T13:49:32;20.40;99.90
10812;DHT22;5458;51.496;7.334;2023-05-10T13:51:59;20.40;99.90
10812;DHT22;5458;51.496;7.334;2023-05-10T13:54:25;20.40;99.90
10812;DHT22;5458;51.496;7.334;2023-05-10T13:56:50;20.30;99.90
10812;DHT22;5458;51.496;7.334;2023-05-10T13:59:16;20.30;99.90
10812;DHT22;5458;51.496;7.334;2023-05-10T14:01:41;20.30;99.90
10812;DHT22;5458;51.496;7.334;2023-05-10T14:04:08;20.40;99.90
10812;DHT22;5458;51.496;7.334;2023-05-10T14:06:37;20.50;99.90
10812;DHT22;5458;51.496;7.334;2023-05-10T14:09:03;20.50;99.90
10812;DHT22;5458;51.496;7.334;2023-05-10T14:11:28;20.50;99.90
10812;DHT22;5458;51.496;7.334;2023-05-10T14:13:54;20.60;99.90
10812;DHT22;5458;51.496;7.334;2023-05-10T14:16:20;20.70;99.90
10812;DHT22;5458;51.496;7.334;2023-05-10T14:18:46;20.70;99.90
10812;DHT22;5458;51.496;7.334;2023-05-10T14:21:12;20.80;99.90
10812;DHT22;5458;51.496;7.334;2023-05-10T14:23:37;20.80;99.90
10812;DHT22;5458;51.496;7.334;2023-05-10T14:26:03;20.80;99.90
10812;DHT22;5458;51.496;7.334;2023-05-10T14:28:29;20.80;99.90
10812;DHT22;5458;51.496;7.334;2023-05-10T14:30:54;20.70;99.90
10812;DHT22;5458;51.496;7.334;2023-05-10T14:33:20;20.70;99.90
10812;DHT22;5458;51.496;7.334;2023-05-10T14:35:46;20.80;99.90
10812;DHT22;5458;51.496;7.334;2023-05-10T14:38:12;20.70;99.90
10812;DHT22;5458;51.496;7.334;2023-05-10T14:40:38;20.80;99.90
10812;DHT22;5458;51.496;7.334;2023-05-10T14:43:04;20.80;99.90
10812;DHT22;5458;51.496;7.334;2023-05-10T14:45:29;20.70;99.90
10812;DHT22;5458;51.496;7.334;2023-05-10T14:47:55;20.80;99.90
10812;DHT22;5458;51.496;7.334;2023-05-10T14:50:20;20.80;99.90
10812;DHT22;5458;51.496;7.334;2023-05-10T14:52:46;20.80;99.90
10812;DHT22;5458;51.496;7.334;2023-05-10T14:55:12;20.90;99.90
10812;DHT22;5458;51.496;7.334;2023-05-10T14:57:37;20.80;99.10
10812;DHT22;5458;51.496;7.334;2023-05-10T15:00:03;20.80;99.50
10812;DHT22;5458;51.496;7.334;2023-05-10T15:02:30;20.90;99.30
10812;DHT22;5458;51.496;7.334;2023-05-10T15:04:56;20.80;99.80
10812;DHT22;5458;51.496;7.334;2023-05-10T15:07:23;20.70;99.70
10812;DHT22;5458;51.496;7.334;2023-05-10T15:09:49;20.70;99.20
10812;DHT22;5458;51.496;7.334;2023-05-10T15:12:15;20.70;99.20
10812;DHT22;5458;51.496;7.334;2023-05-10T15:14:40;20.60;99.20
10812;DHT22;5458;51.496;7.334;2023-05-10T15:17:06;20.60;99.30
10812;DHT22;5458;51.496;7.334;2023-05-10T15:19:32;20.70;99.90
10812;DHT22;5458;51.496;7.334;2023-05-10T15:21:58;20.80;99.90
10812;DHT22;5458;51.496;7.334;2023-05-10T15:24:24;20.90;99.90
10812;DHT22;5458;51.496;7.334;2023-05-10T15:26:50;20.80;99.30
10812;DHT22;5458;51.496;7.334;2023-05-10T15:29:16;20.70;98.90
10812;DHT22;5458;51.496;7.334;2023-05-10T15:31:49;20.50;98.90
10812;DHT22;5458;51.496;7.334;2023-05-10T15:34:15;20.40;99.00
10812;DHT22;5458;51.496;7.334;2023-05-10T15:36:40;20.40;99.30
10812;DHT22;5458;51.496;7.334;2023-05-10T15:39:06;20.20;99.50
10812;DHT22;5458;51.496;7.334;2023-05-10T15:41:31;20.20;99.40
10812;DHT22;5458;51.496;7.334;2023-05-10T15:43:57;20.30;99.70
10812;DHT22;5458;51.496;7.334;2023-05-10T15:46:25;20.40;99.70
10812;DHT22;5458;51.496;7.334;2023-05-10T15:48:51;20.50;99.10
10812;DHT22;5458;51.496;7.334;2023-05-10T15:51:17;20.40;98.60
10812;DHT22;5458;51.496;7.334;2023-05-10T15:53:44;20.20;98.90
10812;DHT22;5458;51.496;7.334;2023-05-10T15:56:09;20.10;98.90
10812;DHT22;5458;51.496;7.334;2023-05-10T15:58:35;20.10;98.90
10812;DHT22;5458;51.496;7.334;2023-05-10T16:01:01;20.10;98.80
10812;DHT22;5458;51.496;7.334;2023-05-10T16:03:28;20.00;98.90
10812;DHT22;5458;51.496;7.334;2023-05-10T16:05:55;20.00;98.90
10812;DHT22;5458;51.496;7.334;2023-05-10T16:08:20;20.10;99.00
10812;DHT22;5458;51.496;7.334;2023-05-10T16:10:46;19.90;99.00
10812;DHT22;5458;51.496;7.334;2023-05-10T16:13:11;19.90;99.30